Southbridge, MA

5:45 AM EDT on August 29, 2014 (GMT -0400)
Westover Air Reserve Base / Metropolitan Airport | Change Station
CLOSE
Current Station
Airport
Location: Chicopee,
Elevation: 246 ft
Nearby Weather Stations

Elev 246 ft 42.19 °N, 72.53 °W | Updated 34 minutes ago

Clear
Clear
48 °F
Feels Like 48 °F
N
4
Wind Variable Wind from NE

Today
High -- | Low -- °F
--% Chance of Precip.
Yesterday
High -- | Low -- °F
Precip. -- in
6:10 AM 7:26 PM
Waxing Crescent, 13% visible
Pressure 30.09 in
Visibility 4.0 miles
Clouds Clear
Dew Point 46 °F
Humidity 93%
Rainfall 0.00 in
Snow Depth Not available.
UV 0 out of 12
Pollen 9.70 out of 12
PM2.5 Good
Flu Activity Not available.
SPECI KCEF 290911Z AUTO 04003KT 4SM BR CLR 09/08 A3009 RMK AO2 CHINO RWY05

More Conditions Fewer Conditions

Pressure 30.09 in
Visibility 4.0 miles
Clouds Clear
Dew Point 46 °F
Humidity 93%
Rainfall 0.00 in
Snow Depth Not available.
UV 0 out of 12
Pollen 9.70 out of 12
PM2.5 Good
Flu Activity Not available.
SPECI KCEF 290911Z AUTO 04003KT 4SM BR CLR 09/08 A3009 RMK AO2 CHINO RWY05

More Conditions Fewer Conditions

10-Day Weather Forecast

Almanac

Astronomy

Aug. 29, 2014 Rise Set
Actual Time 6:10 AM EDT 7:26 PM EDT
Civil Twilight 5:41 AM EDT 7:55 PM EDT
Nautical Twilight 5:06 AM EDT 8:30 PM EDT
Astronomical Twilight 4:30 AM EDT 9:06 PM EDT
Moon 10:01 AM EDT 9:17 PM EDT
Length of Visible Light 14h 14m
Length of Day
13h 16m
Tomorrow will be 2m 41s shorter.
Waxing Crescent, 13% of the Moon is Illuminated
Today
Waxing Crescent
Sep 2
First Quarter
Sep 8
Full
Sep 15
Last Quarter
Sep 24
New

Today's Extremes

State Highs State Lows

Community

WunderPhotos

Upload Photos

1,748,207 photos uploaded!

Nearby

Air Quality

  Air Quality AQ Index Pollutant
Yesterday Good
OZONE
Yesterday Good
PM2.5
Current Good
PM2.5
Friday Good
PM2.5
Friday Good
OZONE

Snow Depth

Station Depth Elevation
No new snow has been reported.

Earthquake Activity

City Distance Mag. Time & Date
No recent earthquake activity has been reported nearby.
Minimum magnitude displayed is 2.5.

Coastal Water Temperatures

Place Temperature
No Stations Reporting

Nearby Weather Stations